sensor_id;sensor_type;location;lat;lon;timestamp;P1;durP1;ratioP1;P2;durP2;ratioP2
19897;SDS011;10111;50.814;4.572;2022-09-01T00:01:49;3.13;;;2.50;;
19897;SDS011;10111;50.814;4.572;2022-09-01T00:04:18;5.73;;;3.70;;
19897;SDS011;10111;50.814;4.572;2022-09-01T00:06:47;4.80;;;2.33;;
19897;SDS011;10111;50.814;4.572;2022-09-01T00:09:15;6.70;;;2.97;;
19897;SDS011;10111;50.814;4.572;2022-09-01T00:11:43;4.67;;;2.87;;
19897;SDS011;10111;50.814;4.572;2022-09-01T00:14:11;7.37;;;3.10;;
19897;SDS011;10111;50.814;4.572;2022-09-01T00:16:37;5.00;;;2.67;;
19897;SDS011;10111;50.814;4.572;2022-09-01T00:19:03;4.87;;;3.10;;
19897;SDS011;10111;50.814;4.572;2022-09-01T00:21:31;4.33;;;2.97;;
19897;SDS011;10111;50.814;4.572;2022-09-01T00:24:08;3.27;;;2.80;;
19897;SDS011;10111;50.814;4.572;2022-09-01T00:26:35;4.13;;;2.60;;
19897;SDS011;10111;50.814;4.572;2022-09-01T00:29:01;5.13;;;3.20;;
19897;SDS011;10111;50.814;4.572;2022-09-01T00:31:27;3.60;;;2.77;;
19897;SDS011;10111;50.814;4.572;2022-09-01T00:33:52;3.77;;;2.80;;
19897;SDS011;10111;50.814;4.572;2022-09-01T00:36:19;5.73;;;3.23;;
19897;SDS011;10111;50.814;4.572;2022-09-01T00:38:47;4.83;;;2.67;;
19897;SDS011;10111;50.814;4.572;2022-09-01T00:41:14;5.23;;;2.80;;
19897;SDS011;10111;50.814;4.572;2022-09-01T00:46:18;5.23;;;2.67;;
19897;SDS011;10111;50.814;4.572;2022-09-01T00:48:47;4.87;;;2.40;;
19897;SDS011;10111;50.814;4.572;2022-09-01T00:51:18;2.97;;;2.37;;
19897;SDS011;10111;50.814;4.572;2022-09-01T00:53:44;7.67;;;2.67;;
19897;SDS011;10111;50.814;4.572;2022-09-01T00:56:10;3.87;;;3.17;;
19897;SDS011;10111;50.814;4.572;2022-09-01T00:58:37;3.40;;;2.73;;
19897;SDS011;10111;50.814;4.572;2022-09-01T01:01:07;6.03;;;2.67;;
19897;SDS011;10111;50.814;4.572;2022-09-01T01:03:34;4.20;;;2.73;;
19897;SDS011;10111;50.814;4.572;2022-09-01T01:06:01;3.90;;;2.60;;
19897;SDS011;10111;50.814;4.572;2022-09-01T01:08:31;3.90;;;3.10;;
19897;SDS011;10111;50.814;4.572;2022-09-01T01:11:00;3.47;;;3.00;;
19897;SDS011;10111;50.814;4.572;2022-09-01T01:13:28;7.27;;;2.93;;
19897;SDS011;10111;50.814;4.572;2022-09-01T01:15:56;6.87;;;3.47;;
19897;SDS011;10111;50.814;4.572;2022-09-01T01:18:23;5.90;;;2.30;;
19897;SDS011;10111;50.814;4.572;2022-09-01T01:21:00;6.20;;;2.40;;
19897;SDS011;10111;50.814;4.572;2022-09-01T01:24:31;3.80;;;2.97;;
19897;SDS011;10111;50.814;4.572;2022-09-01T01:26:45;4.47;;;3.07;;
19897;SDS011;10111;50.814;4.572;2022-09-01T01:29:11;5.20;;;3.27;;
19897;SDS011;10111;50.814;4.572;2022-09-01T01:31:38;6.90;;;2.93;;
19897;SDS011;10111;50.814;4.572;2022-09-01T01:34:04;4.23;;;3.20;;
19897;SDS011;10111;50.814;4.572;2022-09-01T01:36:32;3.90;;;2.87;;
19897;SDS011;10111;50.814;4.572;2022-09-01T01:39:08;4.33;;;3.17;;
19897;SDS011;10111;50.814;4.572;2022-09-01T01:41:43;4.00;;;2.90;;
19897;SDS011;10111;50.814;4.572;2022-09-01T01:44:13;3.90;;;2.43;;
19897;SDS011;10111;50.814;4.572;2022-09-01T01:46:43;4.40;;;3.10;;
19897;SDS011;10111;50.814;4.572;2022-09-01T01:49:12;7.20;;;3.07;;
19897;SDS011;10111;50.814;4.572;2022-09-01T01:51:39;2.67;;;2.40;;
19897;SDS011;10111;50.814;4.572;2022-09-01T01:54:05;4.43;;;2.63;;
19897;SDS011;10111;50.814;4.572;2022-09-01T01:56:32;5.47;;;3.37;;
19897;SDS011;10111;50.814;4.572;2022-09-01T01:59:02;4.30;;;2.67;;
19897;SDS011;10111;50.814;4.572;2022-09-01T02:01:28;7.13;;;3.30;;
19897;SDS011;10111;50.814;4.572;2022-09-01T02:03:56;7.77;;;2.57;;
19897;SDS011;10111;50.814;4.572;2022-09-01T02:06:24;3.37;;;3.07;;
19897;SDS011;10111;50.814;4.572;2022-09-01T02:08:51;6.17;;;3.23;;
19897;SDS011;10111;50.814;4.572;2022-09-01T02:11:21;4.57;;;2.97;;
19897;SDS011;10111;50.814;4.572;2022-09-01T02:13:50;5.03;;;2.70;;
19897;SDS011;10111;50.814;4.572;2022-09-01T02:16:18;5.53;;;3.37;;
19897;SDS011;10111;50.814;4.572;2022-09-01T02:18:45;3.63;;;3.03;;
19897;SDS011;10111;50.814;4.572;2022-09-01T02:21:16;6.67;;;3.07;;
19897;SDS011;10111;50.814;4.572;2022-09-01T02:23:46;4.83;;;3.07;;
19897;SDS011;10111;50.814;4.572;2022-09-01T02:26:13;5.43;;;2.97;;
19897;SDS011;10111;50.814;4.572;2022-09-01T02:28:40;8.73;;;3.30;;
19897;SDS011;10111;50.814;4.572;2022-09-01T02:31:10;5.17;;;3.47;;
19897;SDS011;10111;50.814;4.572;2022-09-01T02:33:37;8.37;;;3.43;;
19897;SDS011;10111;50.814;4.572;2022-09-01T02:36:05;7.13;;;3.57;;
19897;SDS011;10111;50.814;4.572;2022-09-01T02:38:34;3.80;;;3.30;;
19897;SDS011;10111;50.814;4.572;2022-09-01T02:41:00;5.13;;;3.80;;
19897;SDS011;10111;50.814;4.572;2022-09-01T02:43:27;6.30;;;3.90;;
19897;SDS011;10111;50.814;4.572;2022-09-01T02:45:56;5.07;;;4.23;;
19897;SDS011;10111;50.814;4.572;2022-09-01T02:48:26;5.67;;;3.90;;
19897;SDS011;10111;50.814;4.572;2022-09-01T02:50:57;4.63;;;3.87;;
19897;SDS011;10111;50.814;4.572;2022-09-01T02:53:25;4.33;;;3.27;;
19897;SDS011;10111;50.814;4.572;2022-09-01T02:55:52;10.10;;;4.03;;
19897;SDS011;10111;50.814;4.572;2022-09-01T02:58:18;5.97;;;4.90;;
19897;SDS011;10111;50.814;4.572;2022-09-01T03:00:44;5.93;;;3.80;;
19897;SDS011;10111;50.814;4.572;2022-09-01T03:03:16;4.83;;;3.40;;
19897;SDS011;10111;50.814;4.572;2022-09-01T03:05:44;4.20;;;3.73;;
19897;SDS011;10111;50.814;4.572;2022-09-01T03:08:10;6.87;;;3.77;;
19897;SDS011;10111;50.814;4.572;2022-09-01T03:10:38;6.50;;;4.43;;
19897;SDS011;10111;50.814;4.572;2022-09-01T03:13:10;5.80;;;4.40;;
19897;SDS011;10111;50.814;4.572;2022-09-01T03:15:37;7.13;;;4.70;;
19897;SDS011;10111;50.814;4.572;2022-09-01T03:18:04;6.70;;;4.50;;
19897;SDS011;10111;50.814;4.572;2022-09-01T03:20:31;4.83;;;4.03;;
19897;SDS011;10111;50.814;4.572;2022-09-01T03:23:00;4.67;;;3.93;;
19897;SDS011;10111;50.814;4.572;2022-09-01T03:25:32;5.57;;;4.00;;
19897;SDS011;10111;50.814;4.572;2022-09-01T03:27:58;7.90;;;4.53;;
19897;SDS011;10111;50.814;4.572;2022-09-01T03:30:26;4.47;;;3.77;;
19897;SDS011;10111;50.814;4.572;2022-09-01T03:32:56;7.57;;;4.37;;
19897;SDS011;10111;50.814;4.572;2022-09-01T03:35:22;6.77;;;4.87;;
19897;SDS011;10111;50.814;4.572;2022-09-01T03:37:49;11.63;;;5.87;;
19897;SDS011;10111;50.814;4.572;2022-09-01T03:40:16;7.30;;;4.40;;
19897;SDS011;10111;50.814;4.572;2022-09-01T03:42:43;9.10;;;5.07;;
19897;SDS011;10111;50.814;4.572;2022-09-01T03:45:10;9.53;;;5.10;;
19897;SDS011;10111;50.814;4.572;2022-09-01T03:47:39;8.20;;;5.27;;
19897;SDS011;10111;50.814;4.572;2022-09-01T03:50:13;6.30;;;4.60;;
19897;SDS011;10111;50.814;4.572;2022-09-01T03:52:54;6.80;;;4.67;;
19897;SDS011;10111;50.814;4.572;2022-09-01T03:55:24;7.30;;;4.20;;
19897;SDS011;10111;50.814;4.572;2022-09-01T03:57:58;8.53;;;4.30;;
19897;SDS011;10111;50.814;4.572;2022-09-01T04:00:28;6.37;;;4.47;;
19897;SDS011;10111;50.814;4.572;2022-09-01T04:02:55;6.97;;;4.30;;
19897;SDS011;10111;50.814;4.572;2022-09-01T04:05:25;5.17;;;4.30;;
19897;SDS011;10111;50.814;4.572;2022-09-01T04:07:56;6.77;;;4.57;;
19897;SDS011;10111;50.814;4.572;2022-09-01T04:10:28;6.67;;;5.40;;
19897;SDS011;10111;50.814;4.572;2022-09-01T04:12:56;8.57;;;4.97;;
19897;SDS011;10111;50.814;4.572;2022-09-01T04:15:23;5.50;;;4.40;;
19897;SDS011;10111;50.814;4.572;2022-09-01T04:17:51;8.43;;;4.90;;
19897;SDS011;10111;50.814;4.572;2022-09-01T04:20:34;8.20;;;4.93;;
19897;SDS011;10111;50.814;4.572;2022-09-01T04:23:34;8.57;;;4.20;;
19897;SDS011;10111;50.814;4.572;2022-09-01T04:26:03;9.50;;;5.87;;
19897;SDS011;10111;50.814;4.572;2022-09-01T04:28:39;8.93;;;4.90;;
19897;SDS011;10111;50.814;4.572;2022-09-01T04:31:09;7.57;;;4.87;;
19897;SDS011;10111;50.814;4.572;2022-09-01T04:33:43;6.00;;;4.47;;
19897;SDS011;10111;50.814;4.572;2022-09-01T04:38:46;5.70;;;4.73;;
19897;SDS011;10111;50.814;4.572;2022-09-01T04:41:24;6.80;;;4.60;;
19897;SDS011;10111;50.814;4.572;2022-09-01T04:43:57;5.73;;;4.27;;
19897;SDS011;10111;50.814;4.572;2022-09-01T04:46:28;5.27;;;4.60;;
19897;SDS011;10111;50.814;4.572;2022-09-01T04:48:57;10.10;;;5.20;;
19897;SDS011;10111;50.814;4.572;2022-09-01T04:51:24;5.77;;;4.57;;
19897;SDS011;10111;50.814;4.572;2022-09-01T04:53:56;9.13;;;4.80;;
19897;SDS011;10111;50.814;4.572;2022-09-01T04:56:23;8.77;;;4.33;;
19897;SDS011;10111;50.814;4.572;2022-09-01T04:58:51;6.27;;;4.10;;
19897;SDS011;10111;50.814;4.572;2022-09-01T05:01:21;10.63;;;5.30;;
19897;SDS011;10111;50.814;4.572;2022-09-01T05:03:48;8.60;;;4.70;;
19897;SDS011;10111;50.814;4.572;2022-09-01T05:06:25;6.73;;;4.27;;
19897;SDS011;10111;50.814;4.572;2022-09-01T05:08:52;7.80;;;4.57;;
19897;SDS011;10111;50.814;4.572;2022-09-01T05:11:20;7.03;;;4.20;;
19897;SDS011;10111;50.814;4.572;2022-09-01T05:13:48;6.80;;;4.27;;
19897;SDS011;10111;50.814;4.572;2022-09-01T05:16:18;6.40;;;4.57;;
19897;SDS011;10111;50.814;4.572;2022-09-01T05:18:46;6.00;;;3.77;;
19897;SDS011;10111;50.814;4.572;2022-09-01T05:21:17;7.03;;;4.33;;
19897;SDS011;10111;50.814;4.572;2022-09-01T05:23:46;5.70;;;3.63;;
19897;SDS011;10111;50.814;4.572;2022-09-01T05:26:25;6.37;;;4.50;;
19897;SDS011;10111;50.814;4.572;2022-09-01T05:28:55;6.53;;;3.93;;
19897;SDS011;10111;50.814;4.572;2022-09-01T05:31:24;6.90;;;4.23;;
19897;SDS011;10111;50.814;4.572;2022-09-01T05:33:52;6.33;;;4.37;;
19897;SDS011;10111;50.814;4.572;2022-09-01T05:36:19;8.33;;;3.80;;
19897;SDS011;10111;50.814;4.572;2022-09-01T05:38:47;9.17;;;5.23;;
19897;SDS011;10111;50.814;4.572;2022-09-01T05:41:16;8.17;;;4.23;;
19897;SDS011;10111;50.814;4.572;2022-09-01T05:43:45;6.00;;;4.50;;
19897;SDS011;10111;50.814;4.572;2022-09-01T05:46:14;6.00;;;4.13;;
19897;SDS011;10111;50.814;4.572;2022-09-01T05:48:43;5.33;;;4.83;;
19897;SDS011;10111;50.814;4.572;2022-09-01T05:51:09;5.00;;;4.37;;
19897;SDS011;10111;50.814;4.572;2022-09-01T05:53:40;4.80;;;4.00;;
19897;SDS011;10111;50.814;4.572;2022-09-01T05:56:07;6.97;;;4.20;;
19897;SDS011;10111;50.814;4.572;2022-09-01T05:58:33;6.97;;;4.13;;
19897;SDS011;10111;50.814;4.572;2022-09-01T06:01:00;5.43;;;4.20;;
19897;SDS011;10111;50.814;4.572;2022-09-01T06:03:27;7.10;;;4.10;;
19897;SDS011;10111;50.814;4.572;2022-09-01T06:05:53;4.57;;;4.13;;
19897;SDS011;10111;50.814;4.572;2022-09-01T06:08:25;8.20;;;4.83;;
19897;SDS011;10111;50.814;4.572;2022-09-01T06:10:53;6.03;;;4.50;;
19897;SDS011;10111;50.814;4.572;2022-09-01T06:13:18;9.40;;;4.50;;
19897;SDS011;10111;50.814;4.572;2022-09-01T06:15:46;8.27;;;4.47;;
19897;SDS011;10111;50.814;4.572;2022-09-01T06:18:13;6.23;;;3.70;;
19897;SDS011;10111;50.814;4.572;2022-09-01T06:20:42;7.43;;;4.07;;
19897;SDS011;10111;50.814;4.572;2022-09-01T06:23:11;7.20;;;3.57;;
19897;SDS011;10111;50.814;4.572;2022-09-01T06:25:40;4.63;;;3.10;;
19897;SDS011;10111;50.814;4.572;2022-09-01T06:28:10;5.73;;;3.33;;
19897;SDS011;10111;50.814;4.572;2022-09-01T06:30:37;5.30;;;3.10;;
19897;SDS011;10111;50.814;4.572;2022-09-01T06:33:04;7.17;;;3.17;;
19897;SDS011;10111;50.814;4.572;2022-09-01T06:35:33;6.50;;;3.63;;
19897;SDS011;10111;50.814;4.572;2022-09-01T06:37:59;3.83;;;2.87;;
19897;SDS011;10111;50.814;4.572;2022-09-01T06:40:27;4.27;;;2.43;;
19897;SDS011;10111;50.814;4.572;2022-09-01T06:42:53;4.23;;;3.00;;
19897;SDS011;10111;50.814;4.572;2022-09-01T06:45:20;6.23;;;4.03;;
19897;SDS011;10111;50.814;4.572;2022-09-01T06:47:47;3.47;;;3.03;;
19897;SDS011;10111;50.814;4.572;2022-09-01T06:50:16;3.17;;;2.83;;
19897;SDS011;10111;50.814;4.572;2022-09-01T06:52:44;4.27;;;3.50;;
19897;SDS011;10111;50.814;4.572;2022-09-01T06:55:10;4.30;;;3.10;;
19897;SDS011;10111;50.814;4.572;2022-09-01T06:57:38;4.63;;;3.97;;
19897;SDS011;10111;50.814;4.572;2022-09-01T07:00:05;5.97;;;3.03;;
19897;SDS011;10111;50.814;4.572;2022-09-01T07:02:42;4.73;;;3.50;;
19897;SDS011;10111;50.814;4.572;2022-09-01T07:05:09;8.33;;;3.80;;
19897;SDS011;10111;50.814;4.572;2022-09-01T07:07:35;4.70;;;3.47;;
19897;SDS011;10111;50.814;4.572;2022-09-01T07:10:01;4.13;;;3.37;;
19897;SDS011;10111;50.814;4.572;2022-09-01T07:12:28;5.90;;;3.53;;
19897;SDS011;10111;50.814;4.572;2022-09-01T07:14:55;5.63;;;3.20;;
19897;SDS011;10111;50.814;4.572;2022-09-01T07:17:22;3.80;;;3.17;;
19897;SDS011;10111;50.814;4.572;2022-09-01T07:19:49;5.53;;;3.73;;
19897;SDS011;10111;50.814;4.572;2022-09-01T07:22:15;3.73;;;3.40;;
19897;SDS011;10111;50.814;4.572;2022-09-01T07:24:41;3.67;;;3.23;;
19897;SDS011;10111;50.814;4.572;2022-09-01T07:27:07;5.23;;;4.03;;
19897;SDS011;10111;50.814;4.572;2022-09-01T07:29:33;5.73;;;3.60;;
19897;SDS011;10111;50.814;4.572;2022-09-01T07:31:59;4.03;;;3.40;;
19897;SDS011;10111;50.814;4.572;2022-09-01T07:34:25;4.40;;;3.20;;
19897;SDS011;10111;50.814;4.572;2022-09-01T07:36:51;6.20;;;3.63;;
19897;SDS011;10111;50.814;4.572;2022-09-01T07:39:24;5.47;;;4.40;;
19897;SDS011;10111;50.814;4.572;2022-09-01T07:41:49;5.00;;;3.20;;
19897;SDS011;10111;50.814;4.572;2022-09-01T07:44:15;6.63;;;3.40;;
19897;SDS011;10111;50.814;4.572;2022-09-01T07:46:41;5.53;;;3.47;;
19897;SDS011;10111;50.814;4.572;2022-09-01T07:49:07;6.97;;;3.83;;
19897;SDS011;10111;50.814;4.572;2022-09-01T07:51:33;4.30;;;3.53;;
19897;SDS011;10111;50.814;4.572;2022-09-01T07:54:00;4.33;;;3.37;;
19897;SDS011;10111;50.814;4.572;2022-09-01T07:56:26;4.23;;;2.97;;
19897;SDS011;10111;50.814;4.572;2022-09-01T07:58:54;5.13;;;3.40;;
19897;SDS011;10111;50.814;4.572;2022-09-01T08:01:22;3.23;;;2.93;;
19897;SDS011;10111;50.814;4.572;2022-09-01T08:03:57;7.10;;;3.00;;
19897;SDS011;10111;50.814;4.572;2022-09-01T08:06:26;3.40;;;3.10;;
19897;SDS011;10111;50.814;4.572;2022-09-01T08:08:53;5.03;;;3.77;;
19897;SDS011;10111;50.814;4.572;2022-09-01T08:11:21;2.80;;;2.60;;
19897;SDS011;10111;50.814;4.572;2022-09-01T08:13:50;4.03;;;2.97;;
19897;SDS011;10111;50.814;4.572;2022-09-01T08:16:16;3.40;;;3.10;;
19897;SDS011;10111;50.814;4.572;2022-09-01T08:18:42;3.60;;;2.73;;
19897;SDS011;10111;50.814;4.572;2022-09-01T08:21:10;3.20;;;2.90;;
19897;SDS011;10111;50.814;4.572;2022-09-01T08:23:36;3.57;;;2.97;;
19897;SDS011;10111;50.814;4.572;2022-09-01T08:26:13;3.50;;;2.83;;
19897;SDS011;10111;50.814;4.572;2022-09-01T08:28:41;2.90;;;2.70;;
19897;SDS011;10111;50.814;4.572;2022-09-01T08:31:07;3.63;;;2.93;;
19897;SDS011;10111;50.814;4.572;2022-09-01T08:33:35;3.37;;;3.07;;
19897;SDS011;10111;50.814;4.572;2022-09-01T08:36:01;4.57;;;3.50;;
19897;SDS011;10111;50.814;4.572;2022-09-01T08:38:27;3.47;;;3.17;;
19897;SDS011;10111;50.814;4.572;2022-09-01T08:40:54;3.93;;;3.50;;
19897;SDS011;10111;50.814;4.572;2022-09-01T08:43:42;3.33;;;3.03;;
19897;SDS011;10111;50.814;4.572;2022-09-01T08:46:33;5.10;;;3.67;;
19897;SDS011;10111;50.814;4.572;2022-09-01T08:49:06;3.30;;;2.60;;
19897;SDS011;10111;50.814;4.572;2022-09-01T08:51:56;3.53;;;2.40;;
19897;SDS011;10111;50.814;4.572;2022-09-01T08:57:19;3.83;;;2.27;;
19897;SDS011;10111;50.814;4.572;2022-09-01T08:59:47;3.10;;;2.80;;
19897;SDS011;10111;50.814;4.572;2022-09-01T09:10:36;3.00;;;2.70;;
19897;SDS011;10111;50.814;4.572;2022-09-01T09:13:31;2.43;;;2.23;;
19897;SDS011;10111;50.814;4.572;2022-09-01T09:16:16;2.63;;;2.27;;
19897;SDS011;10111;50.814;4.572;2022-09-01T09:18:48;3.70;;;2.40;;
19897;SDS011;10111;50.814;4.572;2022-09-01T09:21:29;2.50;;;2.13;;
19897;SDS011;10111;50.814;4.572;2022-09-01T09:26:35;2.10;;;2.00;;
19897;SDS011;10111;50.814;4.572;2022-09-01T09:29:01;2.43;;;2.13;;
19897;SDS011;10111;50.814;4.572;2022-09-01T09:31:28;1.70;;;1.60;;
19897;SDS011;10111;50.814;4.572;2022-09-01T09:33:59;1.93;;;1.83;;
19897;SDS011;10111;50.814;4.572;2022-09-01T09:36:29;4.30;;;2.03;;
19897;SDS011;10111;50.814;4.572;2022-09-01T09:39:05;2.10;;;1.90;;
19897;SDS011;10111;50.814;4.572;2022-09-01T09:41:34;2.10;;;1.90;;
19897;SDS011;10111;50.814;4.572;2022-09-01T09:44:10;2.13;;;1.93;;
19897;SDS011;10111;50.814;4.572;2022-09-01T09:46:50;3.70;;;2.40;;
19897;SDS011;10111;50.814;4.572;2022-09-01T09:49:29;2.37;;;2.17;;
19897;SDS011;10111;50.814;4.572;2022-09-01T09:54:57;2.33;;;1.90;;
19897;SDS011;10111;50.814;4.572;2022-09-01T09:57:42;2.00;;;1.80;;
19897;SDS011;10111;50.814;4.572;2022-09-01T10:03:04;4.23;;;1.80;;
19897;SDS011;10111;50.814;4.572;2022-09-01T10:08:10;1.83;;;1.70;;
19897;SDS011;10111;50.814;4.572;2022-09-01T10:11:01;2.37;;;1.50;;
19897;SDS011;10111;50.814;4.572;2022-09-01T10:13:28;1.57;;;1.40;;
19897;SDS011;10111;50.814;4.572;2022-09-01T10:15:56;1.63;;;1.53;;
19897;SDS011;10111;50.814;4.572;2022-09-01T10:18:37;2.60;;;2.00;;
19897;SDS011;10111;50.814;4.572;2022-09-01T10:21:09;2.23;;;1.80;;
19897;SDS011;10111;50.814;4.572;2022-09-01T10:23:41;2.73;;;1.80;;
19897;SDS011;10111;50.814;4.572;2022-09-01T10:31:18;2.30;;;1.77;;
19897;SDS011;10111;50.814;4.572;2022-09-01T10:33:45;1.60;;;1.50;;
19897;SDS011;10111;50.814;4.572;2022-09-01T10:36:12;2.07;;;1.40;;
19897;SDS011;10111;50.814;4.572;2022-09-01T10:38:40;2.40;;;1.70;;
19897;SDS011;10111;50.814;4.572;2022-09-01T10:41:06;2.17;;;1.47;;
19897;SDS011;10111;50.814;4.572;2022-09-01T10:43:37;2.83;;;1.60;;
19897;SDS011;10111;50.814;4.572;2022-09-01T10:48:44;7.47;;;3.17;;
19897;SDS011;10111;50.814;4.572;2022-09-01T10:59:04;1.40;;;1.30;;
19897;SDS011;10111;50.814;4.572;2022-09-01T11:04:08;3.27;;;1.60;;
19897;SDS011;10111;50.814;4.572;2022-09-01T11:09:19;2.93;;;1.60;;
19897;SDS011;10111;50.814;4.572;2022-09-01T11:17:31;2.97;;;1.23;;
19897;SDS011;10111;50.814;4.572;2022-09-01T11:27:58;1.40;;;1.10;;
19897;SDS011;10111;50.814;4.572;2022-09-01T11:33:00;2.43;;;1.40;;
19897;SDS011;10111;50.814;4.572;2022-09-01T11:35:29;2.93;;;1.50;;
19897;SDS011;10111;50.814;4.572;2022-09-01T11:37:56;2.23;;;1.30;;
19897;SDS011;10111;50.814;4.572;2022-09-01T11:40:29;1.80;;;1.40;;
19897;SDS011;10111;50.814;4.572;2022-09-01T11:42:56;1.87;;;1.20;;
19897;SDS011;10111;50.814;4.572;2022-09-01T11:45:26;1.93;;;1.50;;
19897;SDS011;10111;50.814;4.572;2022-09-01T11:48:00;2.13;;;1.73;;
19897;SDS011;10111;50.814;4.572;2022-09-01T11:50:34;3.10;;;1.70;;
19897;SDS011;10111;50.814;4.572;2022-09-01T11:53:09;3.60;;;1.80;;
19897;SDS011;10111;50.814;4.572;2022-09-01T11:55:39;3.00;;;1.60;;
19897;SDS011;10111;50.814;4.572;2022-09-01T11:58:10;1.70;;;1.60;;
19897;SDS011;10111;50.814;4.572;2022-09-01T12:00:39;1.47;;;1.37;;
19897;SDS011;10111;50.814;4.572;2022-09-01T12:05:47;2.70;;;1.87;;
19897;SDS011;10111;50.814;4.572;2022-09-01T12:08:23;1.67;;;1.37;;
19897;SDS011;10111;50.814;4.572;2022-09-01T12:11:00;1.93;;;1.57;;
19897;SDS011;10111;50.814;4.572;2022-09-01T12:16:22;1.70;;;1.60;;
19897;SDS011;10111;50.814;4.572;2022-09-01T12:18:48;2.37;;;1.57;;
19897;SDS011;10111;50.814;4.572;2022-09-01T12:21:29;1.83;;;1.73;;
19897;SDS011;10111;50.814;4.572;2022-09-01T12:24:15;2.03;;;1.83;;
19897;SDS011;10111;50.814;4.572;2022-09-01T12:26:41;2.50;;;1.40;;
19897;SDS011;10111;50.814;4.572;2022-09-01T12:29:09;1.97;;;1.60;;
19897;SDS011;10111;50.814;4.572;2022-09-01T12:31:38;2.00;;;1.80;;
19897;SDS011;10111;50.814;4.572;2022-09-01T12:42:22;1.87;;;1.67;;
19897;SDS011;10111;50.814;4.572;2022-09-01T12:49:58;2.27;;;2.07;;
19897;SDS011;10111;50.814;4.572;2022-09-01T12:52:27;5.07;;;2.00;;
19897;SDS011;10111;50.814;4.572;2022-09-01T13:02:47;1.90;;;1.50;;
19897;SDS011;10111;50.814;4.572;2022-09-01T13:07:55;2.77;;;1.93;;
19897;SDS011;10111;50.814;4.572;2022-09-01T13:10:25;4.33;;;1.80;;
19897;SDS011;10111;50.814;4.572;2022-09-01T13:12:54;1.30;;;1.20;;
19897;SDS011;10111;50.814;4.572;2022-09-01T13:15:24;3.83;;;1.57;;
19897;SDS011;10111;50.814;4.572;2022-09-01T13:17:50;1.90;;;1.80;;
19897;SDS011;10111;50.814;4.572;2022-09-01T13:20:16;3.10;;;2.03;;
19897;SDS011;10111;50.814;4.572;2022-09-01T13:22:42;3.10;;;2.10;;
19897;SDS011;10111;50.814;4.572;2022-09-01T13:25:12;4.20;;;1.83;;
19897;SDS011;10111;50.814;4.572;2022-09-01T13:27:40;1.57;;;1.47;;
19897;SDS011;10111;50.814;4.572;2022-09-01T13:30:15;2.53;;;1.60;;
19897;SDS011;10111;50.814;4.572;2022-09-01T13:32:43;1.93;;;1.63;;
19897;SDS011;10111;50.814;4.572;2022-09-01T13:35:11;3.70;;;1.30;;
19897;SDS011;10111;50.814;4.572;2022-09-01T13:37:43;2.07;;;1.67;;
19897;SDS011;10111;50.814;4.572;2022-09-01T13:40:10;3.90;;;1.30;;
19897;SDS011;10111;50.814;4.572;2022-09-01T13:42:40;1.83;;;1.60;;
19897;SDS011;10111;50.814;4.572;2022-09-01T13:45:10;1.70;;;1.60;;
19897;SDS011;10111;50.814;4.572;2022-09-01T13:47:37;1.30;;;1.20;;
19897;SDS011;10111;50.814;4.572;2022-09-01T13:50:04;3.97;;;2.00;;
19897;SDS011;10111;50.814;4.572;2022-09-01T13:52:30;1.63;;;1.53;;
19897;SDS011;10111;50.814;4.572;2022-09-01T13:54:57;1.57;;;1.47;;
19897;SDS011;10111;50.814;4.572;2022-09-01T13:57:22;2.23;;;2.00;;
19897;SDS011;10111;50.814;4.572;2022-09-01T13:59:48;1.80;;;1.50;;
19897;SDS011;10111;50.814;4.572;2022-09-01T14:02:14;1.60;;;1.50;;
19897;SDS011;10111;50.814;4.572;2022-09-01T14:04:40;1.73;;;1.27;;
19897;SDS011;10111;50.814;4.572;2022-09-01T14:07:05;1.80;;;1.47;;
19897;SDS011;10111;50.814;4.572;2022-09-01T14:09:31;1.87;;;1.47;;
19897;SDS011;10111;50.814;4.572;2022-09-01T14:11:57;2.50;;;2.00;;
19897;SDS011;10111;50.814;4.572;2022-09-01T14:14:23;1.73;;;1.60;;
19897;SDS011;10111;50.814;4.572;2022-09-01T14:16:49;5.87;;;1.53;;
19897;SDS011;10111;50.814;4.572;2022-09-01T14:19:15;2.97;;;1.77;;
19897;SDS011;10111;50.814;4.572;2022-09-01T14:21:41;2.03;;;1.30;;
19897;SDS011;10111;50.814;4.572;2022-09-01T14:24:07;2.87;;;1.53;;
19897;SDS011;10111;50.814;4.572;2022-09-01T14:26:32;1.30;;;1.20;;
19897;SDS011;10111;50.814;4.572;2022-09-01T14:28:58;3.73;;;1.50;;
19897;SDS011;10111;50.814;4.572;2022-09-01T14:31:26;2.47;;;1.30;;
19897;SDS011;10111;50.814;4.572;2022-09-01T14:33:53;1.43;;;1.33;;
19897;SDS011;10111;50.814;4.572;2022-09-01T14:36:21;2.17;;;1.40;;
19897;SDS011;10111;50.814;4.572;2022-09-01T14:38:49;1.47;;;1.37;;
19897;SDS011;10111;50.814;4.572;2022-09-01T14:41:16;1.83;;;1.30;;
19897;SDS011;10111;50.814;4.572;2022-09-01T14:43:45;2.17;;;1.53;;
19897;SDS011;10111;50.814;4.572;2022-09-01T14:46:11;1.80;;;1.40;;
19897;SDS011;10111;50.814;4.572;2022-09-01T14:48:37;2.77;;;1.10;;
19897;SDS011;10111;50.814;4.572;2022-09-01T14:51:04;2.40;;;1.67;;
19897;SDS011;10111;50.814;4.572;2022-09-01T14:53:31;2.07;;;1.50;;
19897;SDS011;10111;50.814;4.572;2022-09-01T14:55:57;1.80;;;1.20;;
19897;SDS011;10111;50.814;4.572;2022-09-01T14:58:25;3.07;;;2.10;;
19897;SDS011;10111;50.814;4.572;2022-09-01T15:00:52;1.40;;;1.30;;
19897;SDS011;10111;50.814;4.572;2022-09-01T15:03:20;1.27;;;1.27;;
19897;SDS011;10111;50.814;4.572;2022-09-01T15:05:46;2.77;;;1.50;;
19897;SDS011;10111;50.814;4.572;2022-09-01T15:08:13;1.50;;;1.40;;
19897;SDS011;10111;50.814;4.572;2022-09-01T15:10:40;2.30;;;1.43;;
19897;SDS011;10111;50.814;4.572;2022-09-01T15:13:06;2.27;;;1.30;;
19897;SDS011;10111;50.814;4.572;2022-09-01T15:15:32;1.27;;;1.17;;
19897;SDS011;10111;50.814;4.572;2022-09-01T15:17:58;2.80;;;1.50;;
19897;SDS011;10111;50.814;4.572;2022-09-01T15:20:24;2.70;;;1.30;;
19897;SDS011;10111;50.814;4.572;2022-09-01T15:23:09;1.20;;;1.10;;
19897;SDS011;10111;50.814;4.572;2022-09-01T15:25:39;1.87;;;1.40;;
19897;SDS011;10111;50.814;4.572;2022-09-01T15:28:05;1.20;;;1.10;;
19897;SDS011;10111;50.814;4.572;2022-09-01T15:30:32;1.97;;;1.20;;
19897;SDS011;10111;50.814;4.572;2022-09-01T15:32:59;2.63;;;2.13;;
19897;SDS011;10111;50.814;4.572;2022-09-01T15:35:26;2.90;;;1.50;;
19897;SDS011;10111;50.814;4.572;2022-09-01T15:37:53;2.23;;;1.17;;
19897;SDS011;10111;50.814;4.572;2022-09-01T15:40:21;1.60;;;1.50;;
19897;SDS011;10111;50.814;4.572;2022-09-01T15:42:47;1.57;;;1.17;;
19897;SDS011;10111;50.814;4.572;2022-09-01T15:45:15;2.57;;;1.67;;
19897;SDS011;10111;50.814;4.572;2022-09-01T15:47:43;2.57;;;1.17;;
19897;SDS011;10111;50.814;4.572;2022-09-01T15:50:10;5.30;;;1.30;;
19897;SDS011;10111;50.814;4.572;2022-09-01T15:52:45;1.30;;;1.10;;
19897;SDS011;10111;50.814;4.572;2022-09-01T15:55:20;2.70;;;2.40;;
19897;SDS011;10111;50.814;4.572;2022-09-01T15:57:50;1.50;;;1.40;;
19897;SDS011;10111;50.814;4.572;2022-09-01T16:00:19;3.60;;;1.53;;
19897;SDS011;10111;50.814;4.572;2022-09-01T16:02:46;1.67;;;1.57;;
19897;SDS011;10111;50.814;4.572;2022-09-01T16:05:12;1.30;;;1.20;;
19897;SDS011;10111;50.814;4.572;2022-09-01T16:07:38;5.37;;;3.57;;
19897;SDS011;10111;50.814;4.572;2022-09-01T16:10:05;3.27;;;1.43;;
19897;SDS011;10111;50.814;4.572;2022-09-01T16:12:37;4.37;;;2.90;;
19897;SDS011;10111;50.814;4.572;2022-09-01T16:15:04;3.70;;;2.70;;
19897;SDS011;10111;50.814;4.572;2022-09-01T16:20:19;2.57;;;1.60;;
19897;SDS011;10111;50.814;4.572;2022-09-01T16:22:57;4.07;;;2.43;;
19897;SDS011;10111;50.814;4.572;2022-09-01T16:25:39;2.23;;;1.33;;
19897;SDS011;10111;50.814;4.572;2022-09-01T16:30:51;3.37;;;2.00;;
19897;SDS011;10111;50.814;4.572;2022-09-01T16:33:21;12.23;;;5.93;;
19897;SDS011;10111;50.814;4.572;2022-09-01T16:35:57;2.00;;;1.60;;
19897;SDS011;10111;50.814;4.572;2022-09-01T16:46:36;3.83;;;1.30;;
19897;SDS011;10111;50.814;4.572;2022-09-01T16:52:06;2.10;;;1.23;;